createdAt,value
2022-09-05T00:01:42.360Z,81.47
2022-09-05T00:04:25.422Z,81.76
2022-09-05T00:07:00.712Z,81.80
2022-09-05T00:09:55.218Z,81.64
2022-09-05T00:12:24.464Z,81.12
2022-09-05T00:15:17.646Z,80.93
2022-09-05T00:22:02.273Z,82.19
2022-09-05T00:24:26.253Z,81.35
2022-09-05T00:24:32.632Z,82.38
2022-09-05T00:27:08.354Z,82.53
2022-09-05T00:31:06.924Z,82.56
2022-09-05T00:33:16.672Z,82.27
2022-09-05T00:35:55.529Z,82.25
2022-09-05T00:38:36.843Z,82.33
2022-09-05T00:41:09.574Z,82.85
2022-09-05T00:43:41.662Z,82.96
2022-09-05T00:46:16.300Z,82.27
2022-09-05T00:48:50.414Z,82.89
2022-09-05T00:51:35.671Z,82.27
2022-09-05T00:54:45.989Z,82.94
2022-09-05T00:57:40.265Z,82.80
2022-09-05T01:04:05.873Z,82.56
2022-09-05T01:06:49.321Z,82.80
2022-09-05T01:09:48.055Z,82.19
2022-09-05T01:12:33.023Z,82.14
2022-09-05T01:15:22.731Z,83.11
2022-09-05T01:18:07.571Z,83.58
2022-09-05T01:20:46.727Z,83.80
2022-09-05T01:23:37.023Z,83.45
2022-09-05T01:26:24.461Z,83.38
2022-09-05T01:29:17.658Z,83.39
2022-09-05T01:31:59.955Z,83.66
2022-09-05T01:34:33.562Z,83.25
2022-09-05T01:37:26.557Z,83.21
2022-09-05T01:40:16.168Z,83.48
2022-09-05T01:43:02.737Z,83.22
2022-09-05T01:45:47.309Z,83.01
2022-09-05T01:48:30.957Z,83.46
2022-09-05T01:51:28.989Z,82.54
2022-09-05T01:54:19.845Z,82.79
2022-09-05T01:57:04.497Z,82.24
2022-09-05T01:59:43.170Z,82.49
2022-09-05T02:02:32.961Z,82.93
2022-09-05T02:05:48.236Z,82.85
2022-09-05T02:08:41.827Z,82.79
2022-09-05T02:11:10.743Z,82.92
2022-09-05T02:13:51.026Z,83.01
2022-09-05T02:16:27.153Z,82.33
2022-09-05T02:19:05.655Z,82.58
2022-09-05T02:21:56.152Z,82.64
2022-09-05T02:24:34.866Z,83.19
2022-09-05T02:27:46.130Z,83.02
2022-09-05T02:30:15.713Z,82.54
2022-09-05T02:32:52.417Z,82.37
2022-09-05T02:35:31.205Z,82.28
2022-09-05T02:40:29.900Z,82.23
2022-09-05T02:45:07.732Z,82.73
2022-09-05T02:45:09.644Z,81.89
2022-09-05T02:46:51.183Z,83.36
2022-09-05T02:53:45.576Z,83.76
2022-09-05T02:55:25.254Z,83.97
2022-09-05T02:57:26.553Z,84.36
2022-09-05T02:59:08.624Z,83.91
2022-09-05T03:01:58.412Z,85.42
2022-09-05T03:04:35.059Z,85.65
2022-09-05T03:07:18.179Z,85.25
2022-09-05T03:10:06.347Z,84.40
2022-09-05T03:13:22.140Z,84.25
2022-09-05T03:16:35.710Z,84.24
2022-09-05T03:19:56.120Z,84.19
2022-09-05T03:23:03.306Z,84.05
2022-09-05T03:26:08.976Z,84.50
2022-09-05T03:29:12.508Z,83.95
2022-09-05T03:31:56.967Z,85.37
2022-09-05T03:34:57.446Z,85.38
2022-09-05T03:37:56.914Z,86.05
2022-09-05T03:40:50.451Z,86.03
2022-09-05T03:43:54.992Z,85.83
2022-09-05T03:46:36.310Z,85.69
2022-09-05T03:51:56.847Z,85.66
2022-09-05T03:57:13.296Z,84.21
2022-09-05T03:57:13.877Z,84.59
2022-09-05T03:59:10.446Z,84.15
2022-09-05T04:06:40.901Z,84.59
2022-09-05T04:08:14.568Z,83.80
2022-09-05T04:08:18.449Z,83.13
2022-09-05T04:10:30.334Z,83.94
2022-09-05T04:13:05.044Z,84.57
2022-09-05T04:15:44.720Z,85.52
2022-09-05T04:18:28.490Z,85.28
2022-09-05T04:21:08.142Z,85.32
2022-09-05T04:23:48.059Z,84.84
2022-09-05T04:26:35.657Z,84.40
2022-09-05T04:29:15.159Z,85.02
2022-09-05T04:32:18.369Z,86.30
2022-09-05T04:34:57.667Z,86.78
2022-09-05T04:37:48.969Z,87.02
2022-09-05T04:40:50.201Z,87.62
2022-09-05T04:43:31.142Z,87.94
2022-09-05T04:46:09.303Z,88.26
2022-09-05T04:48:46.172Z,87.67
2022-09-05T04:51:38.150Z,87.85
2022-09-05T04:54:29.995Z,87.66
2022-09-05T04:57:14.390Z,88.09
2022-09-05T05:06:00.031Z,87.96
2022-09-05T05:06:15.489Z,88.23
2022-09-05T05:06:31.814Z,88.70
2022-09-05T05:08:52.270Z,88.50
2022-09-05T05:17:10.936Z,88.22
2022-09-05T05:17:58.283Z,88.58
2022-09-05T05:18:11.157Z,88.60
2022-09-05T05:20:42.881Z,89.02
2022-09-05T05:23:06.588Z,88.53
2022-09-05T05:25:47.056Z,88.31
2022-09-05T05:28:24.811Z,88.21
2022-09-05T05:31:01.358Z,88.30
2022-09-05T05:33:33.895Z,87.48
2022-09-05T05:36:05.554Z,87.76
2022-09-05T05:38:43.464Z,87.75
2022-09-05T05:41:18.598Z,87.54
2022-09-05T05:43:47.585Z,87.35
2022-09-05T05:46:26.108Z,86.90
2022-09-05T05:49:04.833Z,86.86
2022-09-05T05:52:01.842Z,87.56
2022-09-05T05:54:39.227Z,87.26
2022-09-05T05:57:35.162Z,87.24
2022-09-05T06:00:14.886Z,86.09
2022-09-05T06:03:26.198Z,85.99
2022-09-05T06:06:09.202Z,86.68
2022-09-05T06:13:08.985Z,87.08
2022-09-05T06:14:59.312Z,87.58
2022-09-05T06:15:26.912Z,87.62
2022-09-05T06:18:24.307Z,86.52
2022-09-05T06:22:11.118Z,86.79
2022-09-05T06:24:42.632Z,85.58
2022-09-05T06:28:04.690Z,85.51
2022-09-05T06:30:26.769Z,85.12
2022-09-05T06:33:14.660Z,84.32
2022-09-05T06:36:01.242Z,83.47
2022-09-05T06:38:53.124Z,83.79
2022-09-05T06:41:31.731Z,83.21
2022-09-05T06:44:28.248Z,82.01
2022-09-05T06:47:22.612Z,82.08
2022-09-05T06:50:26.780Z,82.09
2022-09-05T06:53:39.593Z,81.67
2022-09-05T06:56:25.462Z,81.57
2022-09-05T06:59:34.381Z,79.39
2022-09-05T07:02:08.681Z,81.50
2022-09-05T07:05:23.683Z,78.79
2022-09-05T07:07:42.408Z,79.42
2022-09-05T07:10:37.829Z,76.17
2022-09-05T07:13:15.303Z,76.21
2022-09-05T07:15:53.538Z,75.87
2022-09-05T07:18:28.928Z,75.14
2022-09-05T07:21:16.872Z,74.49
2022-09-05T07:24:09.183Z,76.27
2022-09-05T07:26:51.795Z,74.31
2022-09-05T07:29:27.724Z,73.26
2022-09-05T07:31:57.150Z,72.31
2022-09-05T07:34:30.326Z,70.59
2022-09-05T07:37:14.663Z,70.50
2022-09-05T07:39:49.823Z,70.31
2022-09-05T07:42:26.024Z,66.62
2022-09-05T07:44:57.960Z,65.54
2022-09-05T07:47:30.236Z,65.97
2022-09-05T07:54:00.569Z,66.68
2022-09-05T07:56:50.586Z,66.20
2022-09-05T07:57:06.015Z,64.25
2022-09-05T07:58:41.505Z,66.22
2022-09-05T08:01:12.949Z,66.09
2022-09-05T08:03:42.378Z,63.51
2022-09-05T08:06:18.418Z,66.95
2022-09-05T08:09:21.922Z,64.28
2022-09-05T08:12:09.589Z,65.01
2022-09-05T08:14:46.110Z,63.90
2022-09-05T08:17:19.079Z,60.50
2022-09-05T08:20:17.144Z,60.68
2022-09-05T08:22:57.681Z,61.42
2022-09-05T08:25:37.625Z,60.47
2022-09-05T08:28:25.302Z,60.79
2022-09-05T08:31:11.320Z,61.16
2022-09-05T08:33:40.425Z,61.87
2022-09-05T08:36:12.911Z,60.33
2022-09-05T08:38:43.900Z,59.24
2022-09-05T08:41:18.827Z,60.63
2022-09-05T08:46:39.338Z,57.24
2022-09-05T08:46:56.212Z,60.28
2022-09-05T08:49:44.070Z,55.92
2022-09-05T08:52:20.513Z,59.15
2022-09-05T08:55:06.591Z,56.21
2022-09-05T08:58:05.955Z,57.64
2022-09-05T09:00:44.424Z,55.10
2022-09-05T09:03:27.526Z,53.83
2022-09-05T09:06:17.179Z,53.76
2022-09-05T09:08:56.631Z,55.23
2022-09-05T09:11:31.836Z,54.04
2022-09-05T09:14:14.925Z,56.14
2022-09-05T09:17:06.949Z,53.45
2022-09-05T09:19:47.974Z,53.34
2022-09-05T09:22:23.537Z,52.27
2022-09-05T09:25:14.571Z,50.32
2022-09-05T09:28:48.344Z,52.11
2022-09-05T09:31:00.472Z,52.66
2022-09-05T09:33:38.332Z,51.63
2022-09-05T09:36:22.752Z,55.76
2022-09-05T09:39:21.129Z,52.65
2022-09-05T09:42:33.202Z,49.57
2022-09-05T09:45:41.440Z,52.39
2022-09-05T09:48:44.825Z,52.87
2022-09-05T09:51:52.967Z,50.70
2022-09-05T09:54:59.829Z,51.36
2022-09-05T09:58:08.124Z,50.71
2022-09-05T10:00:51.393Z,52.81
2022-09-05T10:10:32.906Z,50.14
2022-09-05T10:10:53.065Z,50.06
2022-09-05T10:11:08.800Z,48.40
2022-09-05T10:13:25.941Z,50.91
2022-09-05T10:16:33.378Z,50.41
2022-09-05T10:22:41.638Z,48.16
2022-09-05T10:25:28.965Z,50.37
2022-09-05T10:28:06.090Z,50.33
2022-09-05T10:31:10.010Z,49.53
2022-09-05T10:35:17.245Z,51.19
2022-09-05T10:36:29.885Z,50.99
2022-09-05T10:39:13.584Z,48.85
2022-09-05T10:41:50.101Z,50.40
2022-09-05T10:44:28.366Z,49.22
2022-09-05T10:47:08.038Z,48.97
2022-09-05T10:49:44.295Z,47.53
2022-09-05T10:52:18.666Z,49.18
2022-09-05T10:55:18.451Z,47.29
2022-09-05T10:57:59.782Z,47.91
2022-09-05T11:02:24.704Z,48.34
2022-09-05T11:03:46.823Z,48.59
2022-09-05T11:06:24.718Z,48.73
2022-09-05T11:09:03.121Z,45.61
2022-09-05T11:11:41.372Z,48.62
2022-09-05T11:14:29.774Z,46.71
2022-09-05T11:17:10.052Z,46.52
2022-09-05T11:19:43.952Z,48.67
2022-09-05T11:22:23.041Z,46.66
2022-09-05T11:24:56.222Z,45.63
2022-09-05T11:27:32.878Z,47.29
2022-09-05T11:30:06.906Z,48.52
2022-09-05T11:39:46.222Z,48.75
2022-09-05T11:40:02.119Z,49.04
2022-09-05T11:40:09.885Z,48.25
2022-09-05T11:42:15.050Z,46.91
2022-09-05T11:44:58.595Z,45.59
2022-09-05T11:48:11.452Z,44.91
2022-09-05T11:51:03.446Z,43.50
2022-09-05T11:53:57.431Z,45.17
2022-09-05T11:57:32.487Z,46.76
2022-09-05T12:00:33.727Z,44.40
2022-09-05T12:03:57.274Z,47.70
2022-09-05T12:06:48.260Z,46.39
2022-09-05T12:09:29.710Z,45.49
2022-09-05T12:12:34.144Z,45.51
2022-09-05T12:15:12.077Z,44.03
2022-09-05T12:17:51.640Z,44.06
2022-09-05T12:20:27.462Z,44.78
2022-09-05T12:23:02.530Z,45.09
2022-09-05T12:27:39.155Z,43.47
2022-09-05T12:29:27.700Z,42.21
2022-09-05T12:32:30.470Z,44.14
2022-09-05T12:36:08.054Z,43.65
2022-09-05T12:40:56.189Z,43.77
2022-09-05T12:41:35.133Z,45.30
2022-09-05T12:44:40.226Z,43.31
2022-09-05T12:45:58.213Z,42.52
2022-09-05T12:48:38.935Z,43.44
2022-09-05T12:51:11.248Z,41.53
2022-09-05T12:53:48.245Z,42.72
2022-09-05T13:00:52.525Z,44.11
2022-09-05T13:02:58.069Z,42.94
2022-09-05T13:03:10.868Z,41.24
2022-09-05T13:05:14.154Z,40.82
2022-09-05T13:07:47.114Z,43.09
2022-09-05T13:11:24.130Z,42.90
2022-09-05T13:14:56.826Z,43.32
2022-09-05T13:16:03.564Z,43.52
2022-09-05T13:18:39.334Z,41.57
2022-09-05T13:21:11.700Z,42.07
2022-09-05T13:23:42.808Z,41.54
2022-09-05T13:26:16.162Z,42.24
2022-09-05T13:28:51.290Z,41.32
2022-09-05T13:38:08.026Z,41.56
2022-09-05T13:38:14.750Z,42.95
2022-09-05T13:38:21.159Z,44.15
2022-09-05T13:40:41.202Z,41.66
2022-09-05T13:43:13.499Z,40.90
2022-09-05T13:46:11.131Z,39.78
2022-09-05T13:51:44.407Z,40.33
2022-09-05T13:54:34.161Z,40.16
2022-09-05T13:57:32.531Z,40.37
2022-09-05T14:00:28.297Z,41.64
2022-09-05T14:03:40.862Z,39.08
2022-09-05T14:06:45.452Z,41.67
2022-09-05T14:09:36.670Z,39.94
2022-09-05T14:12:12.713Z,38.89
2022-09-05T14:17:54.695Z,40.21
2022-09-05T14:20:49.457Z,39.94
2022-09-05T14:23:20.126Z,40.79
2022-09-05T14:25:54.086Z,39.69
2022-09-05T14:28:28.228Z,41.46
2022-09-05T14:35:16.396Z,40.35
2022-09-05T14:37:40.628Z,38.99
2022-09-05T14:37:41.558Z,40.16
2022-09-05T14:40:29.482Z,39.90
2022-09-05T14:43:30.949Z,40.13
2022-09-05T14:46:28.393Z,40.94
2022-09-05T14:49:19.403Z,41.47
2022-09-05T14:51:48.907Z,41.65
2022-09-05T15:00:58.317Z,40.51
2022-09-05T15:02:43.047Z,41.20
2022-09-05T15:03:05.592Z,40.27
2022-09-05T15:05:50.364Z,39.79
2022-09-05T15:09:53.668Z,41.51
2022-09-05T15:12:15.564Z,39.76
2022-09-05T15:14:07.228Z,39.82
2022-09-05T15:16:43.814Z,42.09
2022-09-05T15:19:13.953Z,40.23
2022-09-05T15:21:42.153Z,42.33
2022-09-05T15:24:18.128Z,41.03
2022-09-05T15:26:53.156Z,40.83
2022-09-05T15:29:25.124Z,41.25
2022-09-05T15:32:12.282Z,41.41
2022-09-05T15:34:40.843Z,42.71
2022-09-05T15:37:29.169Z,40.27
2022-09-05T15:40:07.640Z,40.76
2022-09-05T15:42:55.309Z,40.12
2022-09-05T15:45:26.898Z,40.08
2022-09-05T15:48:16.487Z,39.99
2022-09-05T15:50:51.425Z,41.52
2022-09-05T15:53:25.659Z,43.51
2022-09-05T15:56:00.129Z,45.81
2022-09-05T15:58:52.419Z,44.82
2022-09-05T16:01:32.621Z,40.07
2022-09-05T16:08:49.389Z,40.04
2022-09-05T16:10:29.369Z,39.86
2022-09-05T16:10:37.856Z,41.75
2022-09-05T16:12:45.782Z,42.06
2022-09-05T16:16:29.889Z,42.19
2022-09-05T16:23:15.606Z,41.03
2022-09-05T16:23:23.594Z,42.77
2022-09-05T16:24:04.171Z,41.10
2022-09-05T16:26:40.538Z,42.00
2022-09-05T16:29:14.182Z,42.39
2022-09-05T16:31:49.777Z,44.49
2022-09-05T16:34:25.434Z,44.30
2022-09-05T16:37:08.372Z,41.93
2022-09-05T16:39:45.390Z,45.31
2022-09-05T16:42:18.835Z,46.24
2022-09-05T16:44:51.295Z,46.67
2022-09-05T16:47:25.886Z,46.62
2022-09-05T16:50:03.232Z,46.96
2022-09-05T16:52:39.945Z,45.69
2022-09-05T16:55:29.658Z,47.25
2022-09-05T16:58:03.415Z,49.20
2022-09-05T17:01:17.050Z,51.29
2022-09-05T17:03:54.554Z,52.84
2022-09-05T17:06:32.147Z,54.55
2022-09-05T17:09:13.339Z,53.52
2022-09-05T17:11:55.975Z,56.79
2022-09-05T17:14:34.854Z,53.69
2022-09-05T17:17:19.745Z,57.74
2022-09-05T17:20:10.821Z,58.49
2022-09-05T17:25:50.398Z,57.93
2022-09-05T17:29:23.471Z,59.31
2022-09-05T17:29:30.088Z,58.29
2022-09-05T17:31:53.601Z,60.68
2022-09-05T17:35:16.876Z,60.71
2022-09-05T17:38:34.459Z,63.07
2022-09-05T17:41:35.253Z,63.07
2022-09-05T17:44:18.553Z,62.44
2022-09-05T17:47:01.361Z,63.22
2022-09-05T17:49:45.232Z,61.52
2022-09-05T17:52:23.891Z,62.25
2022-09-05T17:54:56.582Z,63.45
2022-09-05T17:57:42.229Z,64.59
2022-09-05T18:00:45.693Z,63.63
2022-09-05T18:04:17.128Z,62.41
2022-09-05T18:06:59.579Z,61.69
2022-09-05T18:13:31.319Z,62.54
2022-09-05T18:16:10.730Z,61.47
2022-09-05T18:19:28.517Z,62.68
2022-09-05T18:21:50.371Z,63.52
2022-09-05T18:24:33.456Z,65.32
2022-09-05T18:28:03.611Z,65.18
2022-09-05T18:30:29.922Z,66.04
2022-09-05T18:33:56.151Z,66.01
2022-09-05T18:36:42.956Z,65.31
2022-09-05T18:39:42.216Z,65.73
2022-09-05T18:42:26.517Z,67.23
2022-09-05T18:45:15.188Z,66.63
2022-09-05T18:47:51.297Z,66.04
2022-09-05T18:50:32.297Z,65.69
2022-09-05T18:53:10.743Z,64.30
2022-09-05T18:56:13.225Z,63.77
2022-09-05T18:58:53.098Z,64.59
2022-09-05T19:01:35.977Z,64.99
2022-09-05T19:04:08.989Z,65.95
2022-09-05T19:06:59.530Z,66.52
2022-09-05T19:09:40.226Z,66.24
2022-09-05T19:12:35.155Z,65.14
2022-09-05T19:15:13.676Z,66.46
2022-09-05T19:17:47.347Z,68.12
2022-09-05T19:20:32.837Z,69.36
2022-09-05T19:23:11.786Z,69.39
2022-09-05T19:25:44.723Z,69.11
2022-09-05T19:36:50.635Z,70.14
2022-09-05T19:37:05.615Z,71.03
2022-09-05T19:37:15.102Z,70.86
2022-09-05T19:37:30.148Z,70.36
2022-09-05T19:42:43.529Z,69.51
2022-09-05T19:47:26.820Z,70.74
2022-09-05T19:47:41.867Z,70.54
2022-09-05T19:48:26.407Z,70.91
2022-09-05T19:50:56.268Z,71.79
2022-09-05T19:53:25.322Z,73.03
2022-09-05T19:55:54.896Z,73.12
2022-09-05T19:58:25.746Z,74.46
2022-09-05T20:01:08.402Z,74.76
2022-09-05T20:03:43.354Z,75.17
2022-09-05T20:06:28.718Z,74.32
2022-09-05T20:09:10.678Z,74.75
2022-09-05T20:11:46.184Z,73.80
2022-09-05T20:14:25.225Z,74.21
2022-09-05T20:16:56.023Z,73.81
2022-09-05T20:19:30.370Z,73.36
2022-09-05T20:22:18.743Z,73.17
2022-09-05T20:24:51.955Z,73.77
2022-09-05T20:27:27.120Z,73.99
2022-09-05T20:29:59.847Z,72.97
2022-09-05T20:32:39.839Z,73.79
2022-09-05T20:40:17.945Z,74.84
2022-09-05T20:43:18.926Z,75.54
2022-09-05T20:43:20.298Z,75.48
2022-09-05T20:43:52.684Z,74.70
2022-09-05T20:53:09.719Z,74.33
2022-09-05T20:54:10.689Z,74.43
2022-09-05T20:54:18.415Z,74.12
2022-09-05T20:55:38.844Z,74.70
2022-09-05T20:57:50.890Z,76.66
2022-09-05T21:00:23.089Z,77.84
2022-09-05T21:02:56.074Z,78.44
2022-09-05T21:05:28.560Z,78.17
2022-09-05T21:08:24.517Z,77.75
2022-09-05T21:10:55.646Z,77.70
2022-09-05T21:13:26.562Z,77.66
2022-09-05T21:15:55.526Z,78.32
2022-09-05T21:18:33.079Z,77.70
2022-09-05T21:21:28.790Z,80.24
2022-09-05T21:24:17.567Z,79.03
2022-09-05T21:26:48.425Z,79.50
2022-09-05T21:29:18.294Z,80.52
2022-09-05T21:31:54.591Z,79.10
2022-09-05T21:34:29.043Z,79.11
2022-09-05T21:37:06.713Z,80.88
2022-09-05T21:39:42.880Z,80.83
2022-09-05T21:43:40.855Z,79.36
2022-09-05T21:47:50.092Z,79.77
2022-09-05T21:48:04.950Z,79.05
2022-09-05T21:50:40.338Z,78.42
2022-09-05T21:54:35.199Z,76.68
2022-09-05T21:59:19.320Z,73.88
2022-09-05T21:59:32.964Z,72.62
2022-09-05T22:01:54.278Z,73.91
2022-09-05T22:04:22.896Z,74.76
2022-09-05T22:06:54.313Z,74.28
2022-09-05T22:09:23.684Z,75.97
2022-09-05T22:11:52.693Z,75.58
2022-09-05T22:14:22.285Z,76.83
2022-09-05T22:16:53.123Z,77.27
2022-09-05T22:19:37.146Z,77.01
2022-09-05T22:22:16.521Z,75.78
2022-09-05T22:24:55.074Z,75.21
2022-09-05T22:27:26.342Z,73.55
2022-09-05T22:29:56.678Z,74.51
2022-09-05T22:32:34.350Z,73.37
2022-09-05T22:35:27.010Z,73.43
2022-09-05T22:38:00.553Z,72.81
2022-09-05T22:40:29.923Z,72.85
2022-09-05T22:42:58.588Z,71.24
2022-09-05T22:45:27.338Z,72.56
2022-09-05T22:47:55.723Z,73.46
2022-09-05T22:50:24.312Z,69.26
2022-09-05T22:52:52.482Z,70.98
2022-09-05T22:55:21.872Z,72.30
2022-09-05T22:57:49.959Z,72.44
2022-09-05T23:00:18.354Z,70.12
2022-09-05T23:02:51.673Z,68.86
2022-09-05T23:05:20.633Z,69.80
2022-09-05T23:07:48.716Z,69.68
2022-09-05T23:10:17.651Z,68.55
2022-09-05T23:12:47.221Z,70.12
2022-09-05T23:15:15.854Z,70.95
2022-09-05T23:17:43.935Z,71.03
2022-09-05T23:20:12.511Z,70.45
2022-09-05T23:22:40.592Z,71.52
2022-09-05T23:25:09.814Z,69.88
2022-09-05T23:27:38.201Z,73.21
2022-09-05T23:30:09.615Z,72.62
2022-09-05T23:32:37.679Z,72.04
2022-09-05T23:35:06.426Z,72.51
2022-09-05T23:37:34.512Z,74.38
2022-09-05T23:40:02.715Z,73.85
2022-09-05T23:42:30.811Z,73.81
2022-09-05T23:44:58.907Z,73.41
2022-09-05T23:47:29.698Z,74.13
2022-09-05T23:49:58.077Z,73.60
2022-09-05T23:52:26.124Z,72.59
2022-09-05T23:54:54.147Z,70.79
2022-09-05T23:57:23.576Z,71.73
2022-09-05T23:59:52.630Z,72.15
